createdAt,value
2023-04-18T00:01:08.124Z,8.80
2023-04-18T00:03:36.888Z,8.80
2023-04-18T00:06:04.007Z,8.80
2023-04-18T00:08:30.996Z,8.80
2023-04-18T00:10:57.932Z,8.80
2023-04-18T00:13:25.101Z,8.80
2023-04-18T00:15:54.282Z,8.80
2023-04-18T00:18:21.438Z,8.80
2023-04-18T00:20:48.325Z,8.80
2023-04-18T00:23:16.500Z,8.80
2023-04-18T00:25:44.580Z,8.80
2023-04-18T00:28:11.545Z,8.90
2023-04-18T00:30:38.500Z,8.80
2023-04-18T00:33:05.676Z,8.90
2023-04-18T00:35:32.662Z,8.90
2023-04-18T00:37:59.561Z,8.90
2023-04-18T00:40:26.566Z,8.90
2023-04-18T00:42:53.436Z,8.90
2023-04-18T00:45:20.656Z,8.90
2023-04-18T00:47:49.718Z,8.90
2023-04-18T00:50:16.728Z,8.90
2023-04-18T00:52:43.913Z,8.90
2023-04-18T00:55:10.930Z,8.90
2023-04-18T00:57:38.532Z,9.00
2023-04-18T01:00:10.535Z,9.00
2023-04-18T01:02:38.160Z,9.00
2023-04-18T01:05:06.267Z,9.00
2023-04-18T01:07:35.568Z,9.00
2023-04-18T01:10:02.563Z,8.90
2023-04-18T01:14:57.358Z,9.00
2023-04-18T01:17:24.395Z,9.00
2023-04-18T01:19:51.655Z,9.00
2023-04-18T01:22:19.693Z,9.00
2023-04-18T01:24:46.674Z,9.00
2023-04-18T01:27:13.953Z,9.00
2023-04-18T01:29:41.074Z,9.00
2023-04-18T01:32:08.094Z,9.00
2023-04-18T01:34:35.041Z,9.00
2023-04-18T01:37:06.073Z,9.00
2023-04-18T01:39:33.223Z,9.00
2023-04-18T01:42:01.991Z,9.00
2023-04-18T01:44:28.901Z,9.00
2023-04-18T01:46:55.892Z,9.00
2023-04-18T01:49:22.834Z,9.00
2023-04-18T01:51:49.879Z,9.00
2023-04-18T01:54:16.963Z,9.00
2023-04-18T01:56:43.968Z,9.00
2023-04-18T01:59:10.830Z,9.00
2023-04-18T02:01:38.665Z,9.00
2023-04-18T02:04:05.652Z,9.00
2023-04-18T02:06:32.577Z,9.00
2023-04-18T02:08:59.995Z,9.00
2023-04-18T02:11:26.907Z,9.00
2023-04-18T02:13:54.011Z,9.00
2023-04-18T02:16:21.053Z,9.00
2023-04-18T02:18:48.899Z,9.00
2023-04-18T02:21:16.008Z,9.00
2023-04-18T02:23:43.012Z,9.00
2023-04-18T02:26:10.087Z,9.00
2023-04-18T02:28:39.247Z,9.00
2023-04-18T02:31:07.423Z,9.00
2023-04-18T02:33:34.686Z,9.00
2023-04-18T02:36:10.325Z,9.00
2023-04-18T02:38:39.060Z,9.00
2023-04-18T02:41:05.979Z,8.90
2023-04-18T02:43:32.964Z,8.90
2023-04-18T02:46:03.004Z,8.90
2023-04-18T02:48:30.128Z,8.90
2023-04-18T02:51:08.037Z,8.90
2023-04-18T02:53:37.335Z,8.90
2023-04-18T02:56:04.607Z,8.90
2023-04-18T02:58:51.549Z,8.90
2023-04-18T03:01:36.171Z,8.80
2023-04-18T03:04:15.373Z,8.80
2023-04-18T03:07:04.111Z,8.80
2023-04-18T03:09:35.353Z,8.80
2023-04-18T03:12:07.876Z,8.80
2023-04-18T03:14:38.034Z,8.80
2023-04-18T03:17:05.867Z,8.80
2023-04-18T03:19:38.870Z,8.90
2023-04-18T03:22:10.069Z,8.80
2023-04-18T03:24:43.296Z,8.80
2023-04-18T03:27:12.877Z,8.80
2023-04-18T03:29:40.626Z,8.80
2023-04-18T03:32:08.342Z,8.80
2023-04-18T03:34:35.435Z,8.80
2023-04-18T03:37:05.472Z,8.80
2023-04-18T03:39:37.539Z,8.80
2023-04-18T03:42:05.152Z,8.80
2023-04-18T03:44:36.004Z,8.80
2023-04-18T03:47:08.390Z,8.80
2023-04-18T03:49:39.199Z,8.80
2023-04-18T03:52:06.112Z,8.80
2023-04-18T03:54:33.712Z,8.80
2023-04-18T03:57:01.012Z,8.80
2023-04-18T03:59:28.001Z,8.80
2023-04-18T04:01:56.098Z,8.80
2023-04-18T04:04:23.269Z,8.80
2023-04-18T04:06:51.286Z,8.80
2023-04-18T04:09:18.240Z,8.80
2023-04-18T04:11:46.686Z,8.80
2023-04-18T04:14:15.660Z,8.80
2023-04-18T04:16:46.057Z,8.80
2023-04-18T04:19:15.998Z,8.80
2023-04-18T04:21:54.329Z,8.80
2023-04-18T04:24:22.757Z,8.80
2023-04-18T04:26:51.548Z,8.80
2023-04-18T04:29:21.913Z,8.80
2023-04-18T04:31:49.266Z,8.70
2023-04-18T04:34:26.160Z,8.80
2023-04-18T04:36:54.142Z,8.70
2023-04-18T04:39:23.165Z,8.70
2023-04-18T04:42:12.280Z,8.70
2023-04-18T04:44:49.812Z,8.80
2023-04-18T04:47:17.328Z,8.80
2023-04-18T04:49:45.710Z,8.80
2023-04-18T04:52:12.658Z,8.70
2023-04-18T04:54:40.315Z,8.70
2023-04-18T04:57:10.674Z,8.70
2023-04-18T04:59:37.643Z,8.70
2023-04-18T05:02:06.068Z,8.70
2023-04-18T05:04:33.136Z,8.70
2023-04-18T05:07:00.116Z,8.70
2023-04-18T05:09:27.041Z,8.70
2023-04-18T05:11:53.926Z,8.70
2023-04-18T05:14:20.945Z,8.70
2023-04-18T05:16:47.889Z,8.70
2023-04-18T05:19:14.902Z,8.70
2023-04-18T05:21:41.766Z,8.70
2023-04-18T05:24:08.770Z,8.70
2023-04-18T05:26:35.673Z,8.70
2023-04-18T05:29:02.590Z,8.70
2023-04-18T05:31:29.585Z,8.70
2023-04-18T05:33:56.474Z,8.60
2023-04-18T05:36:23.380Z,8.70
2023-04-18T05:38:50.353Z,8.60
2023-04-18T05:41:17.258Z,8.70
2023-04-18T05:43:48.403Z,8.60
2023-04-18T05:46:25.172Z,8.70
2023-04-18T05:48:52.116Z,8.70
2023-04-18T05:51:19.000Z,8.60
2023-04-18T05:53:45.995Z,8.60
2023-04-18T05:56:12.864Z,8.70
2023-04-18T05:58:39.753Z,8.70
2023-04-18T06:01:07.846Z,8.70
2023-04-18T06:03:35.047Z,8.60
2023-04-18T06:06:02.308Z,8.60
2023-04-18T06:08:29.184Z,8.60
2023-04-18T06:10:56.123Z,8.60
2023-04-18T06:13:23.111Z,8.60
2023-04-18T06:15:50.068Z,8.60
2023-04-18T06:18:16.966Z,8.60
2023-04-18T06:20:45.379Z,8.60
2023-04-18T06:23:12.564Z,8.60
2023-04-18T06:25:41.520Z,8.60
2023-04-18T06:28:08.444Z,8.60
2023-04-18T06:30:35.804Z,8.60
2023-04-18T06:33:03.159Z,8.60
2023-04-18T06:35:30.974Z,8.60
2023-04-18T06:37:57.977Z,8.60
2023-04-18T06:40:24.839Z,8.60
2023-04-18T06:42:54.059Z,8.60
2023-04-18T06:45:20.922Z,8.60
2023-04-18T06:47:48.207Z,8.60
2023-04-18T06:50:17.538Z,8.70
2023-04-18T06:52:45.686Z,8.70
2023-04-18T06:55:13.230Z,8.70
2023-04-18T06:57:42.762Z,8.70
2023-04-18T07:00:10.530Z,8.70
2023-04-18T07:02:40.975Z,8.70
2023-04-18T07:05:08.540Z,8.70
2023-04-18T07:07:35.639Z,8.80
2023-04-18T07:10:02.577Z,8.80
2023-04-18T07:12:29.516Z,8.80
2023-04-18T07:14:56.484Z,8.80
2023-04-18T07:17:23.477Z,8.80
2023-04-18T07:19:50.518Z,8.80
2023-04-18T07:22:17.399Z,8.80
2023-04-18T07:24:44.289Z,8.90
2023-04-18T07:27:11.233Z,8.80
2023-04-18T07:29:38.141Z,8.90
2023-04-18T07:32:07.521Z,8.90
2023-04-18T07:34:36.253Z,9.00
2023-04-18T07:37:03.267Z,9.00
2023-04-18T07:39:31.946Z,9.00
2023-04-18T07:41:58.999Z,9.00
2023-04-18T07:44:26.049Z,9.10
2023-04-18T07:46:58.915Z,9.10
2023-04-18T07:49:26.002Z,9.10
2023-04-18T07:51:52.943Z,9.10
2023-04-18T07:54:20.156Z,9.10
2023-04-18T07:56:47.153Z,9.10
2023-04-18T07:59:14.254Z,9.10
2023-04-18T08:01:41.375Z,9.10
2023-04-18T08:04:08.417Z,9.20
2023-04-18T08:06:35.609Z,9.20
2023-04-18T08:09:06.104Z,9.30
2023-04-18T08:11:33.568Z,9.30
2023-04-18T08:14:00.770Z,9.40
2023-04-18T08:16:28.486Z,9.40
2023-04-18T08:18:55.677Z,9.50
2023-04-18T08:21:22.688Z,9.50
2023-04-18T08:23:49.582Z,9.60
2023-04-18T08:26:16.492Z,9.60
2023-04-18T08:28:46.361Z,9.60
2023-04-18T08:31:15.038Z,9.70
2023-04-18T08:33:43.572Z,9.70
2023-04-18T08:36:12.103Z,9.70
2023-04-18T08:38:39.038Z,9.80
2023-04-18T08:41:05.860Z,9.80
2023-04-18T08:43:32.838Z,9.80
2023-04-18T08:46:00.609Z,9.90
2023-04-18T08:48:30.723Z,9.90
2023-04-18T08:50:58.780Z,9.90
2023-04-18T08:53:26.762Z,9.90
2023-04-18T08:55:54.540Z,9.90
2023-04-18T08:58:27.578Z,10.00
2023-04-18T09:00:55.004Z,10.00
2023-04-18T09:03:39.714Z,10.10
2023-04-18T09:06:13.788Z,10.10
2023-04-18T09:08:41.761Z,10.20
2023-04-18T09:11:29.274Z,10.30
2023-04-18T09:14:10.616Z,10.40
2023-04-18T09:16:47.323Z,10.50
2023-04-18T09:19:18.869Z,10.60
2023-04-18T09:21:47.658Z,10.80
2023-04-18T09:24:25.499Z,11.00
2023-04-18T09:26:54.279Z,11.30
2023-04-18T09:29:41.594Z,11.70
2023-04-18T09:32:09.526Z,12.00
2023-04-18T09:34:42.333Z,12.50
2023-04-18T09:37:13.397Z,13.00
2023-04-18T09:39:42.426Z,13.60
2023-04-18T09:42:12.910Z,14.10
2023-04-18T09:44:58.100Z,14.70
2023-04-18T09:47:26.260Z,15.30
2023-04-18T09:49:53.206Z,15.90
2023-04-18T09:52:21.491Z,16.40
2023-04-18T09:54:49.185Z,16.90
2023-04-18T09:57:17.239Z,17.40
2023-04-18T09:59:51.264Z,17.70
2023-04-18T10:02:22.716Z,18.00
2023-04-18T10:04:51.429Z,18.30
2023-04-18T10:07:18.560Z,18.60
2023-04-18T10:09:49.198Z,18.80
2023-04-18T10:12:17.418Z,19.00
2023-04-18T10:14:44.463Z,19.20
2023-04-18T10:17:11.860Z,19.60
2023-04-18T10:19:42.092Z,19.90
2023-04-18T10:22:09.057Z,20.30
2023-04-18T10:24:39.056Z,20.60
2023-04-18T10:27:06.259Z,20.80
2023-04-18T10:30:06.892Z,21.20
2023-04-18T10:32:35.791Z,21.40
2023-04-18T10:35:02.747Z,21.80
2023-04-18T10:37:31.726Z,22.00
2023-04-18T10:40:11.174Z,22.20
2023-04-18T10:42:47.726Z,22.50
2023-04-18T10:45:17.783Z,22.60
2023-04-18T10:47:44.751Z,22.70
2023-04-18T10:50:11.861Z,22.90
2023-04-18T10:52:39.155Z,23.10
2023-04-18T10:55:12.291Z,23.20
2023-04-18T10:57:46.452Z,23.20
2023-04-18T11:00:14.785Z,23.40
2023-04-18T11:02:48.483Z,23.50
2023-04-18T11:05:18.790Z,23.50
2023-04-18T11:07:49.013Z,23.70
2023-04-18T11:10:17.077Z,23.80
2023-04-18T11:12:44.018Z,24.00
2023-04-18T11:15:12.324Z,24.10
2023-04-18T11:17:42.174Z,24.10
2023-04-18T11:20:13.677Z,24.00
2023-04-18T11:22:43.787Z,24.00
2023-04-18T11:25:10.960Z,23.80
2023-04-18T11:27:37.961Z,23.70
2023-04-18T11:30:05.226Z,23.60
2023-04-18T11:32:34.006Z,23.50
2023-04-18T11:35:01.195Z,23.50
2023-04-18T11:37:28.102Z,23.50
2023-04-18T11:39:54.974Z,23.60
2023-04-18T11:42:26.257Z,23.70
2023-04-18T11:44:53.214Z,23.90
2023-04-18T11:47:26.827Z,24.00
2023-04-18T11:50:01.075Z,23.90
2023-04-18T11:52:28.928Z,23.70
2023-04-18T11:54:56.702Z,23.40
2023-04-18T11:57:30.371Z,23.40
2023-04-18T11:59:58.254Z,23.50
2023-04-18T12:02:26.624Z,23.60
2023-04-18T12:04:55.154Z,23.50
2023-04-18T12:07:36.350Z,23.30
2023-04-18T12:10:05.340Z,23.20
2023-04-18T12:12:32.422Z,23.10
2023-04-18T12:15:04.174Z,23.00
2023-04-18T12:17:31.308Z,22.90
2023-04-18T12:20:05.428Z,22.90
2023-04-18T12:22:40.114Z,23.00
2023-04-18T12:25:26.177Z,23.20
2023-04-18T12:27:58.554Z,23.40
2023-04-18T12:30:27.502Z,23.50
2023-04-18T12:32:56.186Z,23.50
2023-04-18T12:35:23.900Z,23.40
2023-04-18T12:37:51.542Z,23.10
2023-04-18T12:40:19.291Z,22.80
2023-04-18T12:42:47.442Z,22.60
2023-04-18T12:45:15.235Z,22.40
2023-04-18T12:47:43.184Z,22.10
2023-04-18T12:50:11.758Z,21.90
2023-04-18T12:52:39.703Z,21.70
2023-04-18T12:55:07.520Z,21.60
2023-04-18T12:57:34.610Z,21.50
2023-04-18T13:00:01.805Z,21.50
2023-04-18T13:02:29.458Z,21.60
2023-04-18T13:04:57.498Z,21.70
2023-04-18T13:07:24.849Z,21.90
2023-04-18T13:09:51.977Z,22.10
2023-04-18T13:12:19.122Z,22.30
2023-04-18T13:14:46.523Z,22.50
2023-04-18T13:17:13.550Z,22.50
2023-04-18T13:19:40.416Z,22.70
2023-04-18T13:22:07.396Z,22.70
2023-04-18T13:24:34.378Z,22.70
2023-04-18T13:27:03.357Z,22.70
2023-04-18T13:29:30.708Z,22.60
2023-04-18T13:31:57.708Z,22.40
2023-04-18T13:34:24.581Z,22.20
2023-04-18T13:36:51.826Z,22.00
2023-04-18T13:39:19.196Z,21.80
2023-04-18T13:41:46.281Z,21.50
2023-04-18T13:44:13.492Z,21.30
2023-04-18T13:46:40.777Z,21.10
2023-04-18T13:49:07.779Z,21.00
2023-04-18T13:51:35.782Z,20.90
2023-04-18T13:54:02.775Z,20.80
2023-04-18T13:56:29.837Z,20.60
2023-04-18T13:58:56.822Z,20.40
2023-04-18T14:01:23.834Z,20.20
2023-04-18T14:03:50.985Z,20.00
2023-04-18T14:06:18.058Z,19.70
2023-04-18T14:08:45.067Z,19.50
2023-04-18T14:11:12.210Z,19.30
2023-04-18T14:13:39.094Z,19.10
2023-04-18T14:16:06.733Z,18.90
2023-04-18T14:18:33.596Z,18.80
2023-04-18T14:21:00.725Z,18.70
2023-04-18T14:23:27.629Z,18.60
2023-04-18T14:25:54.482Z,18.50
2023-04-18T14:28:24.788Z,18.50
2023-04-18T14:30:58.075Z,18.50
2023-04-18T14:33:25.005Z,18.40
2023-04-18T14:35:52.057Z,18.30
2023-04-18T14:38:19.067Z,18.30
2023-04-18T14:40:46.707Z,18.20
2023-04-18T14:43:14.130Z,18.10
2023-04-18T14:45:41.005Z,17.90
2023-04-18T14:48:08.805Z,17.90
2023-04-18T14:50:38.630Z,17.80
2023-04-18T14:53:06.023Z,17.70
2023-04-18T14:55:33.864Z,17.70
2023-04-18T14:58:01.281Z,17.60
2023-04-18T15:00:28.234Z,17.50
2023-04-18T15:02:55.375Z,17.40
2023-04-18T15:05:25.998Z,17.40
2023-04-18T15:07:53.053Z,17.30
2023-04-18T15:10:22.441Z,17.20
2023-04-18T15:12:51.075Z,17.20
2023-04-18T15:15:18.947Z,17.00
2023-04-18T15:17:45.930Z,16.90
2023-04-18T15:20:13.159Z,16.90
2023-04-18T15:22:40.102Z,16.80
2023-04-18T15:25:07.583Z,16.60
2023-04-18T15:27:34.445Z,16.60
2023-04-18T15:30:02.403Z,16.50
2023-04-18T15:32:29.309Z,16.30
2023-04-18T15:34:56.438Z,16.30
2023-04-18T15:37:23.669Z,16.20
2023-04-18T15:39:50.514Z,16.10
2023-04-18T15:42:17.540Z,15.90
2023-04-18T15:44:44.479Z,15.80
2023-04-18T15:47:11.392Z,15.80
2023-04-18T15:49:38.368Z,15.70
2023-04-18T15:52:06.926Z,15.60
2023-04-18T15:54:34.167Z,15.50
2023-04-18T15:57:02.396Z,15.40
2023-04-18T15:59:29.294Z,15.30
2023-04-18T16:01:56.551Z,15.20
2023-04-18T16:04:24.228Z,15.10
2023-04-18T16:06:51.155Z,15.10
2023-04-18T16:09:18.641Z,15.10
2023-04-18T16:11:45.882Z,15.00
2023-04-18T16:14:13.010Z,15.00
2023-04-18T16:16:40.047Z,14.80
2023-04-18T16:19:07.014Z,14.80
2023-04-18T16:21:33.876Z,14.70
2023-04-18T16:24:00.946Z,14.60
2023-04-18T16:26:28.967Z,14.50
2023-04-18T16:28:57.062Z,14.40
2023-04-18T16:31:23.984Z,14.40
2023-04-18T16:33:52.683Z,14.30
2023-04-18T16:36:19.807Z,14.30
2023-04-18T16:38:46.836Z,14.20
2023-04-18T16:41:13.777Z,14.10
2023-04-18T16:43:40.748Z,14.10
2023-04-18T16:46:08.359Z,14.00
2023-04-18T16:48:37.964Z,13.90
2023-04-18T16:51:05.735Z,13.80
2023-04-18T16:53:32.572Z,13.70
2023-04-18T16:56:00.966Z,13.70
2023-04-18T16:58:27.911Z,13.60
2023-04-18T17:00:54.888Z,13.50
2023-04-18T17:03:22.069Z,13.50
2023-04-18T17:05:49.085Z,13.40
2023-04-18T17:08:16.644Z,13.30
2023-04-18T17:10:43.550Z,13.30
2023-04-18T17:13:10.536Z,13.30
2023-04-18T17:15:38.308Z,13.20
2023-04-18T17:18:05.416Z,13.10
2023-04-18T17:20:32.472Z,13.10
2023-04-18T17:22:59.521Z,13.10
2023-04-18T17:25:26.606Z,13.00
2023-04-18T17:27:53.437Z,12.90
2023-04-18T17:30:20.530Z,12.90
2023-04-18T17:32:47.493Z,12.80
2023-04-18T17:35:18.018Z,12.80
2023-04-18T17:37:46.169Z,12.80
2023-04-18T17:40:13.209Z,12.80
2023-04-18T17:42:40.323Z,12.70
2023-04-18T17:45:08.376Z,12.60
2023-04-18T17:47:38.872Z,12.60
2023-04-18T17:50:06.875Z,12.50
2023-04-18T17:52:33.862Z,12.50
2023-04-18T17:55:04.206Z,12.40
2023-04-18T17:57:33.571Z,12.40
2023-04-18T18:00:00.405Z,12.30
2023-04-18T18:02:28.553Z,12.20
2023-04-18T18:04:56.408Z,12.20
2023-04-18T18:07:23.481Z,12.20
2023-04-18T18:09:50.571Z,12.10
2023-04-18T18:12:17.416Z,12.10
2023-04-18T18:14:44.254Z,12.10
2023-04-18T18:17:11.194Z,12.10
2023-04-18T18:19:38.131Z,12.10
2023-04-18T18:22:05.049Z,12.10
2023-04-18T18:24:31.965Z,12.10
2023-04-18T18:26:59.616Z,12.10
2023-04-18T18:29:26.595Z,12.10
2023-04-18T18:31:53.553Z,12.00
2023-04-18T18:34:21.607Z,12.00
2023-04-18T18:36:48.608Z,12.00
2023-04-18T18:39:16.580Z,12.00
2023-04-18T18:41:43.717Z,12.00
2023-04-18T18:44:11.667Z,11.90
2023-04-18T18:46:38.774Z,11.90
2023-04-18T18:49:05.942Z,11.90
2023-04-18T18:51:33.024Z,11.80
2023-04-18T18:53:59.881Z,11.80
2023-04-18T18:56:26.939Z,11.80
2023-04-18T18:58:55.583Z,11.70
2023-04-18T19:01:23.062Z,11.70
2023-04-18T19:03:50.276Z,11.70
2023-04-18T19:06:17.430Z,11.70
2023-04-18T19:08:44.443Z,11.60
2023-04-18T19:11:12.860Z,11.60
2023-04-18T19:13:39.867Z,11.60
2023-04-18T19:16:06.951Z,11.50
2023-04-18T19:18:33.953Z,11.50
2023-04-18T19:21:01.039Z,11.50
2023-04-18T19:23:28.437Z,11.40
2023-04-18T19:25:55.527Z,11.40
2023-04-18T19:28:22.988Z,11.30
2023-04-18T19:30:50.019Z,11.30
2023-04-18T19:33:17.506Z,11.30
2023-04-18T19:35:44.353Z,11.30
2023-04-18T19:38:11.388Z,11.20
2023-04-18T19:40:38.350Z,11.20
2023-04-18T19:43:05.337Z,11.20
2023-04-18T19:45:32.334Z,11.10
2023-04-18T19:47:59.325Z,11.10
2023-04-18T19:50:26.301Z,11.10
2023-04-18T19:52:53.252Z,11.10
2023-04-18T19:55:20.369Z,11.10
2023-04-18T19:57:47.786Z,11.00
2023-04-18T20:00:15.133Z,11.00
2023-04-18T20:02:42.336Z,11.00
2023-04-18T20:05:10.044Z,11.00
2023-04-18T20:07:37.783Z,10.90
2023-04-18T20:10:05.409Z,10.90
2023-04-18T20:12:32.397Z,10.90
2023-04-18T20:14:59.543Z,10.80
2023-04-18T20:17:26.746Z,10.80
2023-04-18T20:19:57.067Z,10.80
2023-04-18T20:22:26.743Z,10.80
2023-04-18T20:24:57.330Z,10.70
2023-04-18T20:27:24.508Z,10.60
2023-04-18T20:29:52.074Z,10.60
2023-04-18T20:32:22.461Z,10.60
2023-04-18T20:34:49.492Z,10.50
2023-04-18T20:37:19.896Z,10.50
2023-04-18T20:39:47.627Z,10.40
2023-04-18T20:42:14.790Z,10.40
2023-04-18T20:44:44.198Z,10.40
2023-04-18T20:47:11.996Z,10.40
2023-04-18T20:49:40.240Z,10.30
2023-04-18T20:52:08.662Z,10.30
2023-04-18T20:54:39.322Z,10.30
2023-04-18T20:57:06.955Z,10.20
2023-04-18T20:59:33.907Z,10.20
2023-04-18T21:02:01.318Z,10.20
2023-04-18T21:04:28.488Z,10.20
2023-04-18T21:06:55.439Z,10.10
2023-04-18T21:09:22.290Z,10.10
2023-04-18T21:11:49.323Z,10.10
2023-04-18T21:14:17.357Z,10.10
2023-04-18T21:16:44.464Z,10.10
2023-04-18T21:19:11.649Z,10.00
2023-04-18T21:21:38.715Z,10.00
2023-04-18T21:24:06.395Z,10.00
2023-04-18T21:26:33.849Z,10.00
2023-04-18T21:29:02.840Z,10.00
2023-04-18T21:31:30.726Z,10.00
2023-04-18T21:33:58.945Z,10.00
2023-04-18T21:36:29.285Z,10.00
2023-04-18T21:38:56.936Z,10.00
2023-04-18T21:41:24.358Z,10.00
2023-04-18T21:43:51.733Z,9.90
2023-04-18T21:46:19.249Z,9.90
2023-04-18T21:48:47.808Z,9.90
2023-04-18T21:51:15.468Z,9.90
2023-04-18T21:53:42.678Z,9.80
2023-04-18T21:56:09.633Z,9.80
2023-04-18T21:58:36.678Z,9.80
2023-04-18T22:01:03.634Z,9.70
2023-04-18T22:03:31.703Z,9.70
2023-04-18T22:06:01.679Z,9.70
2023-04-18T22:08:29.622Z,9.70
2023-04-18T22:10:57.791Z,9.70
2023-04-18T22:13:28.427Z,9.70
2023-04-18T22:15:56.335Z,9.70
2023-04-18T22:18:23.680Z,9.70
2023-04-18T22:20:53.974Z,9.70
2023-04-18T22:23:21.187Z,9.70
2023-04-18T22:25:48.667Z,9.70
2023-04-18T22:28:15.763Z,9.60
2023-04-18T22:30:42.657Z,9.60
2023-04-18T22:33:09.708Z,9.60
2023-04-18T22:35:36.703Z,9.50
2023-04-18T22:38:03.622Z,9.50
2023-04-18T22:40:30.525Z,9.50
2023-04-18T22:42:57.469Z,9.50
2023-04-18T22:45:24.420Z,9.40
2023-04-18T22:47:51.423Z,9.40
2023-04-18T22:50:18.471Z,9.40
2023-04-18T22:52:46.374Z,9.30
2023-04-18T22:55:16.414Z,9.30
2023-04-18T22:57:43.389Z,9.30
2023-04-18T23:00:10.805Z,9.20
2023-04-18T23:02:38.855Z,9.20
2023-04-18T23:05:07.470Z,9.20
2023-04-18T23:07:34.482Z,9.20
2023-04-18T23:10:01.413Z,9.20
2023-04-18T23:12:28.389Z,9.20
2023-04-18T23:14:55.320Z,9.10
2023-04-18T23:17:22.211Z,9.10
2023-04-18T23:19:49.100Z,9.10
2023-04-18T23:22:16.029Z,9.10
2023-04-18T23:24:42.970Z,9.00
2023-04-18T23:27:09.906Z,9.00
2023-04-18T23:29:37.981Z,9.00
2023-04-18T23:32:05.068Z,9.00
2023-04-18T23:34:32.147Z,9.00
2023-04-18T23:36:59.218Z,8.90
2023-04-18T23:39:26.599Z,8.90
2023-04-18T23:41:53.495Z,8.90
2023-04-18T23:44:20.438Z,8.90
2023-04-18T23:46:47.815Z,8.90
2023-04-18T23:49:15.449Z,8.90
2023-04-18T23:51:42.528Z,8.90
2023-04-18T23:54:09.463Z,8.90
2023-04-18T23:56:36.375Z,8.80
2023-04-18T23:59:03.262Z,8.80
